Airfield :
LOGIN :

Register | Disclaimer

   EN    FR    IT 

 










Legend :    VFR   Marginal VFR   IFR   Intensive IFR   Very Intensive IFR
Visi :
Ceiling :
>= 8 km
>= 3000ft
5 to 8 km
1000 to 3000 ft
1500m to 5 km
500 to 1000 ft
800 to 1500m
200 to 500 ft
< 800m
< 200 ft
Symbols :   Thunderstorms  Fog  Heavy snow  Heavy precipitations  Wind > 20 kt
SIGMETs :     Misc.  Thunderstorms  Icing  Turbulence  Mountain Waves  Volcanic Ashes






- Airport Elevation : -13 ft
- IATA code : LEY


EHLE - Lelystad

CURRENT METAR :
  • 230825Z AUTO 21010KT 180V240 9999 FEW012 SCT014 BKN017 15/12 Q1013 NOSIG

EXPIRED METARs :
  • 230755Z AUTO 20009KT 170V230 9999 FEW012 BKN015 OVC018 15/12 Q1013 NOSIG
  • 230725Z AUTO 20010KT 160V230 9999 FEW016 SCT019 BKN027 15/12 Q1013 NOSIG
  • 230655Z AUTO 19009KT 160V230 9999 SCT017 OVC032 14/12 Q1012 NOSIG
  • 230625Z AUTO 19010KT 160V230 9999 SCT029 OVC036 14/12 Q1012 NOSIG
  • 230555Z AUTO 19008KT 160V220 9999 BKN033 OVC037 14/12 Q1012 NOSIG
  • 230525Z AUTO 18007KT 9999 OVC031 14/11 Q1012 NOSIG
  • 230455Z AUTO 18007KT 9999 FEW017 BKN021 OVC025 13/11 Q1012 NOSIG
  • 230425Z AUTO 19006KT 9999 BKN017 OVC020 13/11 Q1012

TAF TAF EHLE
Valid from the 23 at 06:00 until the 24 at 12:00 UTC


230513Z 2306/2412 21009KT 9999 SCT017 BKN030
BECMG 2312/2315 26012KT
PROB40
TEMPO 2314/2318 6000 SHRA SCT022CB
BECMG 2317/2320 19003KT CAVOK
PROB40 2400/2405 2000 BR BCFG
TEMPO 2410/2412 15015KT 6000 SHRA TSRA SCT025CB



MET'MAP, your aeronautical weather chart ! - Copyright ORBIFLY December 2007 - Disclaimer

ORBIFLY MET'MAP TEAM :

Programming & Development : Alexandra Zaïnal
Original concept : Baudouin d'Aumeries
Technical & hardware support : Manuel Goepfert
Assistance : Marc-Olivier Méhu




SOURCES & CREDITS :

   NOAA